Time;durP1;ratioP1;P1;durP2;ratioP2;P2;SDS_P1;SDS_P2;PMS_P1;PMS_P2;Temp;Humidity;BMP_temperature;BMP_pressure;BME280_temperature;BME280_humidity;BME280_pressure;Samples;Min_cycle;Max_cycle;Signal;HPM_P1;HPM_P2
2021/10/13 00:01:38;;;;;;;16.35;11.30;;;256.20;2252.80;;;;;;4857704;29;20034;-56
2021/10/13 00:04:04;;;;;;;15.68;10.52;;;256.20;2252.80;;;;;;4857604;29;20029;-57
2021/10/13 00:06:30;;;;;;;25.77;16.08;;;256.40;2252.80;;;;;;4857377;29;20029;-56
2021/10/13 00:08:55;;;;;;;20.88;12.90;;;256.40;2252.80;;;;;;4859474;29;20064;-57
2021/10/13 00:11:21;;;;;;;15.73;10.80;;;256.50;2252.80;;;;;;4861227;29;20026;-57
2021/10/13 00:13:47;;;;;;;12.95;9.75;;;256.50;2252.80;;;;;;4861607;29;20121;-57
2021/10/13 00:16:14;;;;;;;12.50;9.80;;;256.50;2252.80;;;;;;4861494;29;20030;-57
2021/10/13 00:18:40;;;;;;;15.75;9.98;;;256.50;2252.80;;;;;;4861280;29;20415;-57
2021/10/13 00:21:06;;;;;;;17.10;8.75;;;256.50;2252.80;;;;;;4861377;29;20033;-57
2021/10/13 00:23:32;;;;;;;12.88;8.82;;;256.50;2252.80;;;;;;4861212;29;20077;-57
2021/10/13 00:25:58;;;;;;;12.02;7.97;;;256.60;2252.80;;;;;;4861255;29;20552;-56
2021/10/13 00:28:23;;;;;;;16.90;9.98;;;256.50;2252.80;;;;;;4860897;29;20120;-56
2021/10/13 00:30:49;;;;;;;14.95;9.43;;;256.50;2252.80;;;;;;4860987;29;20044;-58
2021/10/13 00:33:15;;;;;;;15.40;9.23;;;256.50;2252.80;;;;;;4861103;29;20061;-57
2021/10/13 00:35:40;;;;;;;14.18;9.85;;;256.40;2252.80;;;;;;4860967;29;20050;-58
2021/10/13 00:38:06;;;;;;;12.75;9.32;;;256.50;2252.80;;;;;;4860992;29;20521;-55
2021/10/13 00:40:32;;;;;;;15.20;10.98;;;256.60;2252.80;;;;;;4860924;29;20040;-57
2021/10/13 00:42:58;;;;;;;16.25;10.15;;;256.50;2252.80;;;;;;4860940;29;20025;-56
2021/10/13 00:45:24;;;;;;;17.50;12.32;;;256.70;2252.80;;;;;;4860862;29;20060;-57
2021/10/13 00:47:49;;;;;;;21.08;12.63;;;256.70;2252.80;;;;;;4860741;29;20392;-57
2021/10/13 00:50:15;;;;;;;17.75;13.05;;;256.80;2252.80;;;;;;4860757;29;20029;-57
2021/10/13 00:52:42;;;;;;;19.17;11.95;;;256.90;2252.80;;;;;;4860577;29;20211;-56
2021/10/13 00:55:17;;;;;;;18.98;12.05;;;256.90;2252.80;;;;;;4860739;29;20487;-58
2021/10/13 00:57:44;;;;;;;18.55;12.25;;;256.90;2252.80;;;;;;4860312;29;20033;-58
2021/10/13 01:00:10;;;;;;;15.73;11.27;;;256.90;2252.80;;;;;;4860261;29;20055;-57
2021/10/13 01:02:59;;;;;;;19.65;13.15;;;256.90;2252.80;;;;;;4860311;29;20034;-58
2021/10/13 01:06:07;;;;;;;16.58;11.20;;;256.90;2252.80;;;;;;4859939;29;20133;-58
2021/10/13 01:09:00;;;;;;;13.45;9.00;;;256.90;2252.80;;;;;;4821333;29;20031;-58
2021/10/13 01:11:56;;;;;;;17.02;9.90;;;256.90;2252.80;;;;;;4821548;29;20038;-58
2021/10/13 01:14:27;;;;;;;12.82;10.18;;;256.90;2252.80;;;;;;4821284;29;20131;-57
2021/10/13 01:17:26;;;;;;;15.13;10.00;;;256.90;2252.80;;;;;;4821408;29;20034;-58
2021/10/13 01:20:13;;;;;;;13.25;9.32;;;256.90;2252.80;;;;;;4820762;29;20605;-57
2021/10/13 01:22:56;;;;;;;13.82;8.68;;;281.60;2278.40;;;;;;4821156;29;20090;-57
2021/10/13 01:25:31;;;;;;;16.97;11.33;;;281.70;2278.40;;;;;;4821254;29;20584;-55
2021/10/13 01:28:00;;;;;;;17.80;10.65;;;281.70;2278.40;;;;;;4821177;29;20034;-57
2021/10/13 01:30:50;;;;;;;11.63;7.90;;;281.70;2278.40;;;;;;4821209;29;20107;-57
2021/10/13 01:33:22;;;;;;;14.60;8.70;;;281.70;2278.40;;;;;;4820608;29;20119;-57
2021/10/13 01:35:53;;;;;;;12.55;9.85;;;281.60;2278.40;;;;;;4821349;29;20510;-57
2021/10/13 01:38:24;;;;;;;13.80;9.40;;;256.90;2252.80;;;;;;4821112;29;20137;-57
2021/10/13 01:40:53;;;;;;;12.88;10.52;;;256.90;2252.80;;;;;;4820980;29;20081;-57
2021/10/13 01:43:21;;;;;;;12.60;9.70;;;256.90;2252.80;;;;;;4820518;29;20452;-57
2021/10/13 01:45:49;;;;;;;12.60;8.48;;;256.80;2252.80;;;;;;4849186;29;20045;-58
2021/10/13 01:48:17;;;;;;;14.75;9.65;;;256.50;2252.80;;;;;;4859776;29;20460;-58
2021/10/13 01:50:46;;;;;;;12.18;8.85;;;256.90;2252.80;;;;;;4859664;29;20057;-57
2021/10/13 01:53:17;;;;;;;17.02;10.38;;;281.70;2278.40;;;;;;4859425;29;20069;-57
2021/10/13 01:55:45;;;;;;;13.27;8.85;;;281.60;2278.40;;;;;;4859421;29;20036;-57
2021/10/13 01:58:11;;;;;;;13.05;8.80;;;281.60;2278.40;;;;;;4859509;29;20030;-57
2021/10/13 02:00:38;;;;;;;14.07;9.13;;;281.60;2278.40;;;;;;4859434;29;20040;-58
2021/10/13 02:03:07;;;;;;;15.98;9.52;;;281.60;2278.40;;;;;;4859503;29;20029;-57
2021/10/13 02:05:35;;;;;;;11.98;8.65;;;281.60;2278.40;;;;;;4859479;29;20093;-57
2021/10/13 02:08:02;;;;;;;13.35;9.75;;;281.60;2278.40;;;;;;4859391;29;20036;-56
2021/10/13 02:10:29;;;;;;;16.90;9.43;;;256.90;2252.80;;;;;;4859591;29;20040;-58
2021/10/13 02:12:57;;;;;;;12.55;9.23;;;256.90;2252.80;;;;;;4859440;29;20037;-57
2021/10/13 02:15:26;;;;;;;11.80;8.48;;;256.90;2252.80;;;;;;4858993;29;20071;-58
2021/10/13 02:17:54;;;;;;;16.70;11.18;;;281.60;2278.40;;;;;;4859393;29;20052;-58
2021/10/13 02:20:23;;;;;;;14.13;9.00;;;256.90;2252.80;;;;;;4859185;29;20041;-57
2021/10/13 02:22:54;;;;;;;14.98;8.63;;;281.60;2278.40;;;;;;4859361;29;20413;-57
2021/10/13 02:25:20;;;;;;;10.98;9.18;;;281.60;2278.40;;;;;;4859092;29;20037;-58
2021/10/13 02:27:59;;;;;;;14.45;9.68;;;281.60;2278.40;;;;;;4859022;29;20033;-57
2021/10/13 02:30:25;;;;;;;12.35;9.10;;;256.90;2252.80;;;;;;4858717;29;20090;-57
2021/10/13 02:32:51;;;;;;;14.60;10.10;;;256.90;2252.80;;;;;;4858443;29;20058;-57
2021/10/13 02:35:17;;;;;;;15.82;10.30;;;256.80;2252.80;;;;;;4859085;29;20030;-58
2021/10/13 02:37:42;;;;;;;12.40;9.50;;;256.70;2252.80;;;;;;4858950;29;20029;-57
2021/10/13 02:40:09;;;;;;;14.50;10.27;;;256.70;2252.80;;;;;;4858776;29;20033;-56
2021/10/13 02:42:36;;;;;;;10.68;8.90;;;256.70;2252.80;;;;;;4858834;29;20081;-56
2021/10/13 02:45:03;;;;;;;15.75;9.68;;;256.80;2252.80;;;;;;4858594;29;20068;-56
2021/10/13 02:47:36;;;;;;;13.30;9.00;;;256.70;2252.80;;;;;;4858965;29;20026;-56
2021/10/13 02:50:28;;;;;;;13.57;9.80;;;256.70;2252.80;;;;;;4858640;29;20048;-56
2021/10/13 02:53:21;;;;;;;14.57;9.50;;;256.70;2252.80;;;;;;4858490;29;20074;-57
2021/10/13 02:55:58;;;;;;;16.00;10.07;;;256.60;2252.80;;;;;;4858782;29;20029;-57
2021/10/13 02:58:42;;;;;;;14.30;9.70;;;256.60;2252.80;;;;;;4858408;29;20037;-55
2021/10/13 03:01:15;;;;;;;13.23;10.43;;;256.70;2252.80;;;;;;4858487;29;20157;-57
2021/10/13 03:03:57;;;;;;;13.73;9.02;;;256.60;2252.80;;;;;;4858275;29;20033;-57
2021/10/13 03:06:26;;;;;;;11.85;9.40;;;256.50;2252.80;;;;;;4858158;29;20030;-58
2021/10/13 03:08:53;;;;;;;12.25;9.20;;;256.50;2252.80;;;;;;4858310;29;20472;-57
2021/10/13 03:11:23;;;;;;;14.82;9.38;;;256.50;2252.80;;;;;;4858619;29;20058;-57
2021/10/13 03:13:52;;;;;;;13.10;9.48;;;256.50;2252.80;;;;;;4858267;29;20036;-57
2021/10/13 03:16:19;;;;;;;14.98;8.50;;;256.50;2252.80;;;;;;4858422;29;20044;-57
2021/10/13 03:18:46;;;;;;;15.30;9.50;;;256.50;2252.80;;;;;;4858388;29;20038;-56
2021/10/13 03:21:13;;;;;;;14.73;9.65;;;256.50;2252.80;;;;;;4858062;29;20520;-58
2021/10/13 03:23:39;;;;;;;14.13;9.65;;;256.60;2252.80;;;;;;4858268;29;20455;-56
2021/10/13 03:26:12;;;;;;;12.85;9.43;;;256.60;2252.80;;;;;;4858096;29;20170;-57
2021/10/13 03:28:39;;;;;;;14.60;10.30;;;256.60;2252.80;;;;;;4858082;29;20033;-57
2021/10/13 03:31:06;;;;;;;14.00;10.02;;;256.70;2252.80;;;;;;4857808;29;20049;-57
2021/10/13 03:33:33;;;;;;;15.23;9.65;;;256.70;2252.80;;;;;;4858086;29;20034;-57
2021/10/13 03:35:59;;;;;;;11.65;8.63;;;256.60;2252.80;;;;;;4857947;29;20121;-57
2021/10/13 03:38:24;;;;;;;14.98;10.18;;;256.60;2252.80;;;;;;4858004;29;20065;-56
2021/10/13 03:40:50;;;;;;;22.48;18.45;;;256.50;2252.80;;;;;;4857888;29;20372;-57
2021/10/13 03:43:16;;;;;;;28.85;17.83;;;256.40;2252.80;;;;;;4857690;29;20033;-57
2021/10/13 03:45:42;;;;;;;39.60;20.42;;;256.40;2252.80;;;;;;4857836;29;20075;-57
2021/10/13 03:48:07;;;;;;;26.10;15.27;;;256.40;2252.80;;;;;;4857909;29;20029;-57
2021/10/13 03:50:33;;;;;;;23.50;13.50;;;256.30;2252.80;;;;;;4841050;29;20041;-57
2021/10/13 03:52:59;;;;;;;18.02;10.23;;;256.20;2252.80;;;;;;4858100;29;20787;-57
2021/10/13 03:55:25;;;;;;;16.77;11.77;;;256.20;2252.80;;;;;;4857861;29;20385;-57
2021/10/13 03:57:51;;;;;;;17.25;11.88;;;256.20;2252.80;;;;;;4857799;29;20026;-57
2021/10/13 04:00:20;;;;;;;25.90;17.63;;;256.30;2252.80;;;;;;4857772;29;20120;-57
2021/10/13 04:02:46;;;;;;;25.20;19.00;;;256.20;2252.80;;;;;;4857765;29;20036;-57
2021/10/13 04:05:13;;;;;;;21.15;15.50;;;256.30;2252.80;;;;;;4857660;29;20036;-57
2021/10/13 04:07:39;;;;;;;29.30;21.23;;;256.30;2252.80;;;;;;4857742;29;20082;-57
2021/10/13 04:10:07;;;;;;;28.08;18.77;;;256.40;2252.80;;;;;;4857893;29;20026;-57
2021/10/13 04:12:34;;;;;;;23.90;19.10;;;256.40;2252.80;;;;;;4857386;29;20033;-56
2021/10/13 04:15:00;;;;;;;24.27;20.98;;;256.40;2252.80;;;;;;4857416;29;20049;-57
2021/10/13 04:17:26;;;;;;;24.00;20.27;;;256.40;2252.80;;;;;;4857955;29;20025;-56
2021/10/13 04:19:51;;;;;;;33.28;29.98;;;256.40;2252.80;;;;;;4857439;29;20074;-58
2021/10/13 04:22:17;;;;;;;17.27;15.00;;;256.40;2252.80;;;;;;4857904;29;20109;-57
2021/10/13 04:24:43;;;;;;;20.65;15.13;;;256.20;2252.80;;;;;;4857480;29;20388;-56
2021/10/13 04:27:09;;;;;;;14.65;11.73;;;256.00;2252.80;;;;;;4857609;29;20082;-56
2021/10/13 04:29:34;;;;;;;16.63;11.90;;;231.30;2252.80;;;;;;4857554;29;20038;-57
2021/10/13 04:32:00;;;;;;;20.13;12.70;;;256.00;2252.80;;;;;;4857324;29;20057;-57
2021/10/13 04:34:26;;;;;;;18.58;13.48;;;231.30;2252.80;;;;;;4857602;29;20034;-58
2021/10/13 04:36:51;;;;;;;29.15;16.85;;;256.00;2252.80;;;;;;4857267;29;20034;-57
2021/10/13 04:39:17;;;;;;;28.77;19.70;;;256.00;2252.80;;;;;;4857646;29;20045;-57
2021/10/13 04:41:43;;;;;;;49.03;31.10;;;256.00;2252.80;;;;;;4857285;29;20022;-57
2021/10/13 04:44:09;;;;;;;39.20;24.08;;;256.00;2252.80;;;;;;4857442;29;20043;-58
2021/10/13 04:46:34;;;;;;;31.65;21.40;;;256.10;2252.80;;;;;;4857169;29;20050;-57
2021/10/13 04:49:00;;;;;;;21.27;14.18;;;256.20;2252.80;;;;;;4857211;29;20068;-57
2021/10/13 04:51:26;;;;;;;47.85;31.13;;;256.30;2252.80;;;;;;4857502;29;20026;-58
2021/10/13 04:53:52;;;;;;;27.88;18.30;;;256.20;2252.80;;;;;;4857191;29;20392;-57
2021/10/13 04:56:17;;;;;;;24.48;16.90;;;231.30;2252.80;;;;;;4860883;29;20408;-58
2021/10/13 04:58:43;;;;;;;22.13;14.73;;;231.20;2252.80;;;;;;4860300;29;20457;-57
2021/10/13 05:01:09;;;;;;;15.70;12.65;;;231.00;2252.80;;;;;;4860576;29;20437;-58
2021/10/13 05:03:35;;;;;;;38.22;21.98;;;231.10;2252.80;;;;;;4860582;29;20449;-57
2021/10/13 05:06:00;;;;;;;51.67;36.17;;;231.20;2252.80;;;;;;4860287;29;20042;-57
2021/10/13 05:08:26;;;;;;;35.15;26.38;;;231.20;2252.80;;;;;;4860589;29;20033;-58
2021/10/13 05:10:52;;;;;;;54.95;30.95;;;231.30;2252.80;;;;;;4860299;29;20033;-57
2021/10/13 05:13:18;;;;;;;27.58;17.50;;;231.30;2252.80;;;;;;4860419;29;20040;-57
2021/10/13 05:15:44;;;;;;;54.63;36.55;;;231.20;2252.80;;;;;;4860067;29;20033;-57
2021/10/13 05:18:10;;;;;;;234.88;140.30;;;231.20;2252.80;;;;;;4860102;29;20033;-57
2021/10/13 05:20:40;;;;;;;291.23;155.90;;;231.20;2252.80;;;;;;4860248;29;20116;-57
2021/10/13 05:23:06;;;;;;;163.45;107.88;;;231.20;2252.80;;;;;;4860241;29;20583;-56
2021/10/13 05:25:32;;;;;;;58.15;35.42;;;231.20;2252.80;;;;;;4860108;29;20041;-57
2021/10/13 05:27:58;;;;;;;53.35;33.38;;;231.30;2252.80;;;;;;4860150;29;20029;-57
2021/10/13 05:30:24;;;;;;;31.65;18.67;;;231.30;2252.80;;;;;;4859923;29;20029;-57
2021/10/13 05:32:49;;;;;;;40.30;24.88;;;256.00;2252.80;;;;;;4859952;29;20079;-57
2021/10/13 05:35:15;;;;;;;69.65;43.72;;;256.10;2252.80;;;;;;4865152;29;20432;-57
2021/10/13 05:37:41;;;;;;;21.95;16.75;;;256.10;2252.80;;;;;;4874807;29;20037;-69
2021/10/13 05:40:07;;;;;;;20.42;18.27;;;256.20;2252.80;;;;;;4880663;29;20045;-59
2021/10/13 05:43:04;;;;;;;22.85;16.40;;;256.40;2252.80;;;;;;4881284;29;20033;-56
2021/10/13 05:45:30;;;;;;;19.77;15.15;;;256.60;2252.80;;;;;;4878995;29;20036;-56
2021/10/13 05:47:55;;;;;;;25.75;17.38;;;256.70;2252.80;;;;;;4878311;29;20031;-56
2021/10/13 05:50:21;;;;;;;18.23;13.27;;;256.80;2252.80;;;;;;4878435;29;20029;-56
2021/10/13 05:52:47;;;;;;;105.30;62.88;;;256.80;2252.80;;;;;;4878505;29;20033;-56
2021/10/13 05:55:13;;;;;;;108.93;65.60;;;256.90;2252.80;;;;;;4878088;29;20025;-56
2021/10/13 05:57:38;;;;;;;22.05;14.77;;;281.60;2278.40;;;;;;4878652;29;20051;-59
2021/10/13 06:00:05;;;;;;;18.40;15.93;;;281.70;2278.40;;;;;;4878082;29;20048;-62
2021/10/13 06:02:33;;;;;;;16.65;11.75;;;281.70;2278.40;;;;;;4877958;29;20029;-57
2021/10/13 06:05:00;;;;;;;19.58;13.23;;;281.80;2278.40;;;;;;4877897;29;20488;-62
2021/10/13 06:07:25;;;;;;;16.20;12.40;;;281.80;2278.40;;;;;;4877262;29;20055;-60
2021/10/13 06:09:51;;;;;;;17.85;12.90;;;281.80;2278.40;;;;;;4878080;29;20056;-57
2021/10/13 06:12:17;;;;;;;18.15;15.18;;;281.80;2278.40;;;;;;4878303;29;20498;-57
2021/10/13 06:14:43;;;;;;;24.75;13.75;;;282.00;2278.40;;;;;;4877765;29;20052;-59
2021/10/13 06:17:09;;;;;;;19.92;14.00;;;282.00;2278.40;;;;;;4874898;29;20037;-55
2021/10/13 06:19:34;;;;;;;49.95;24.92;;;282.10;2278.40;;;;;;4875046;29;20124;-57
2021/10/13 06:22:01;;;;;;;28.13;18.95;;;282.30;2278.40;;;;;;4877734;29;20442;-64
2021/10/13 06:24:26;;;;;;;92.15;49.72;;;282.30;2278.40;;;;;;4877972;29;20092;-57
2021/10/13 06:26:52;;;;;;;127.05;62.13;;;282.30;2278.40;;;;;;4877467;29;20029;-57
2021/10/13 06:29:18;;;;;;;47.65;26.45;;;282.30;2278.40;;;;;;4877686;29;20494;-60
2021/10/13 06:31:44;;;;;;;118.80;64.15;;;282.20;2278.40;;;;;;4877385;29;20109;-58
2021/10/13 06:34:09;;;;;;;106.60;62.13;;;282.30;2278.40;;;;;;4877646;29;20033;-56
2021/10/13 06:36:36;;;;;;;36.10;21.55;;;282.20;2278.40;;;;;;4877745;29;20025;-56
2021/10/13 06:39:02;;;;;;;44.33;26.50;;;282.20;2278.40;;;;;;4877162;29;20169;-57
2021/10/13 06:41:29;;;;;;;31.90;21.27;;;282.20;2278.40;;;;;;4877683;29;20025;-58
2021/10/13 06:43:55;;;;;;;29.33;20.77;;;282.30;2278.40;;;;;;4877319;29;20073;-56
2021/10/13 06:46:21;;;;;;;24.33;17.23;;;282.30;2278.40;;;;;;4877353;29;20028;-56
2021/10/13 06:48:47;;;;;;;17.30;11.73;;;282.40;2278.40;;;;;;4877453;29;20048;-56
2021/10/13 06:51:12;;;;;;;30.48;20.65;;;282.50;2278.40;;;;;;4877447;29;20033;-56
2021/10/13 06:53:38;;;;;;;50.17;34.10;;;307.20;2304.00;;;;;;4877564;29;20421;-55
2021/10/13 06:56:04;;;;;;;15.73;12.05;;;307.20;2304.00;;;;;;4877296;29;20025;-55
2021/10/13 06:58:30;;;;;;;22.00;14.30;;;307.20;2304.00;;;;;;4876921;29;20055;-56
2021/10/13 07:00:56;;;;;;;26.77;18.48;;;307.30;2304.00;;;;;;4877042;29;20040;-55
2021/10/13 07:03:22;;;;;;;20.75;14.73;;;307.40;2304.00;;;;;;4876938;29;20092;-56
2021/10/13 07:05:48;;;;;;;16.58;11.98;;;307.60;2304.00;;;;;;4877327;29;20029;-56
2021/10/13 07:08:13;;;;;;;24.67;16.15;;;307.90;2304.00;;;;;;4867807;29;20040;-56
2021/10/13 07:10:39;;;;;;;27.52;17.30;;;307.80;2304.00;;;;;;4867209;29;20029;-56
2021/10/13 07:13:05;;;;;;;33.17;21.92;;;308.10;2304.00;;;;;;4866196;29;20074;-56
2021/10/13 07:15:31;;;;;;;76.03;41.92;;;332.80;2329.60;;;;;;4863710;29;20388;-58
2021/10/13 07:17:58;;;;;;;20.15;14.60;;;332.90;2329.60;;;;;;4864891;29;20384;-73
2021/10/13 07:20:25;;;;;;;59.10;32.97;;;333.10;2329.60;;;;;;4866436;29;20025;-58
2021/10/13 07:22:51;;;;;;;25.13;15.98;;;333.30;2329.60;;;;;;4866848;29;20033;-58
2021/10/13 07:25:22;;;;;;;49.00;31.25;;;333.40;2329.60;;;;;;4865430;29;20021;-55
2021/10/13 07:27:48;;;;;;;23.15;19.63;;;333.50;2329.60;;;;;;4865914;29;20053;-58
2021/10/13 07:30:17;;;;;;;27.70;19.10;;;333.70;2329.60;;;;;;4866676;29;20068;-54
2021/10/13 07:32:43;;;;;;;31.23;23.80;;;358.50;2329.60;;;;;;4873007;29;20088;-56
2021/10/13 07:35:09;;;;;;;14.80;12.07;;;358.70;2329.60;;;;;;4875548;29;20064;-56
2021/10/13 07:37:35;;;;;;;18.25;13.27;;;358.80;2329.60;;;;;;4876211;29;20448;-54
2021/10/13 07:40:03;;;;;;;16.08;12.35;;;359.00;2329.60;;;;;;4874987;29;20487;-55
2021/10/13 07:42:29;;;;;;;15.20;12.63;;;359.00;2329.60;;;;;;4872764;29;20025;-56
2021/10/13 07:44:55;;;;;;;65.07;53.88;;;359.00;2329.60;;;;;;4875158;29;20032;-54
2021/10/13 07:47:20;;;;;;;17.85;13.00;;;359.20;2329.60;;;;;;4875050;29;20551;-56
2021/10/13 07:49:46;;;;;;;24.13;14.25;;;359.10;2329.60;;;;;;4875065;29;20029;-56
2021/10/13 07:52:12;;;;;;;26.38;16.38;;;359.10;2329.60;;;;;;4874877;29;20052;-56
2021/10/13 07:54:38;;;;;;;25.00;16.55;;;359.20;2329.60;;;;;;4875345;29;20120;-56
2021/10/13 07:57:03;;;;;;;25.98;17.13;;;384.00;2329.60;;;;;;4874914;29;20510;-55
2021/10/13 07:59:29;;;;;;;387.00;266.67;;;384.30;2329.60;;;;;;4874897;29;20072;-56
2021/10/13 08:01:55;;;;;;;23.77;15.68;;;384.50;2329.60;;;;;;4875063;29;20033;-57
2021/10/13 08:04:21;;;;;;;21.85;16.88;;;384.90;2329.60;;;;;;4875031;29;20029;-56
2021/10/13 08:06:47;;;;;;;28.40;22.15;;;410.00;2355.20;;;;;;4875320;29;20066;-58
2021/10/13 08:09:13;;;;;;;27.65;23.02;;;410.30;2355.20;;;;;;4874992;29;20060;-68
2021/10/13 08:11:39;;;;;;;47.53;33.55;;;410.30;2355.20;;;;;;4875056;29;20029;-58
2021/10/13 08:14:05;;;;;;;27.73;19.58;;;435.60;2355.20;;;;;;4874875;29;20021;-57
2021/10/13 08:16:32;;;;;;;31.00;20.98;;;435.50;2355.20;;;;;;4874680;29;20031;-56
2021/10/13 08:18:57;;;;;;;72.55;49.70;;;435.40;2355.20;;;;;;4874949;29;20033;-57
2021/10/13 08:21:23;;;;;;;20.98;15.10;;;435.30;2355.20;;;;;;4874763;29;20032;-57
2021/10/13 08:23:49;;;;;;;28.75;18.23;;;410.20;2355.20;;;;;;4874889;29;20051;-55
2021/10/13 08:26:15;;;;;;;27.15;18.88;;;410.20;2355.20;;;;;;4875317;29;20041;-63
2021/10/13 08:28:47;;;;;;;72.70;51.80;;;410.20;2355.20;;;;;;4874806;29;20025;-61
2021/10/13 08:31:14;;;;;;;27.13;21.48;;;410.20;2355.20;;;;;;4875607;29;20145;-56
2021/10/13 08:33:41;;;;;;;20.90;15.05;;;410.10;2355.20;;;;;;4869971;29;20029;-56
2021/10/13 08:36:07;;;;;;;27.63;22.15;;;410.20;2355.20;;;;;;4878040;29;20111;-57
2021/10/13 08:38:33;;;;;;;32.53;26.65;;;435.20;2355.20;;;;;;4879277;29;20116;-56
2021/10/13 08:40:59;;;;;;;28.38;21.90;;;436.00;2355.20;;;;;;4879674;29;20562;-56
2021/10/13 08:43:24;;;;;;;38.25;27.48;;;461.10;2380.80;;;;;;4879571;29;20088;-57
2021/10/13 08:45:51;;;;;;;25.98;17.83;;;461.40;2380.80;;;;;;4879437;29;20071;-57
2021/10/13 08:48:17;;;;;;;29.67;23.67;;;486.80;2380.80;;;;;;4867192;29;20037;-56
2021/10/13 08:50:43;;;;;;;25.70;20.00;;;486.70;2380.80;;;;;;4861029;29;20085;-57
2021/10/13 08:53:11;;;;;;;18.77;14.73;;;486.50;2380.80;;;;;;4860826;29;20549;-56
2021/10/13 08:55:39;;;;;;;28.63;20.23;;;486.50;2380.80;;;;;;4860803;29;20083;-56
2021/10/13 08:58:18;;;;;;;16.85;12.30;;;486.80;2380.80;;;;;;4872578;29;20028;-57
2021/10/13 09:00:51;;;;;;;29.05;17.15;;;487.00;2380.80;;;;;;4877247;29;20484;-56
2021/10/13 09:03:28;;;;;;;31.27;23.13;;;487.10;2380.80;;;;;;4869984;29;20361;-57
2021/10/13 09:05:54;;;;;;;21.88;17.08;;;487.20;2380.80;;;;;;4877474;29;20103;-56
2021/10/13 09:08:21;;;;;;;19.25;16.13;;;487.00;2380.80;;;;;;4877330;29;20085;-57
2021/10/13 09:10:46;;;;;;;16.00;13.30;;;486.60;2380.80;;;;;;4877131;29;20033;-58
2021/10/13 09:13:16;;;;;;;16.83;13.82;;;461.70;2380.80;;;;;;4877216;29;20116;-56
2021/10/13 09:15:53;;;;;;;21.20;18.75;;;461.20;2380.80;;;;;;4877498;29;20025;-55
2021/10/13 09:18:22;;;;;;;26.55;15.70;;;461.10;2380.80;;;;;;4877359;29;22419;-57
2021/10/13 09:20:50;;;;;;;29.05;13.82;;;461.10;2380.80;;;;;;4877520;29;20040;-56
2021/10/13 09:23:26;;;;;;;24.15;15.25;;;460.90;2380.80;;;;;;4877070;29;20476;-57
2021/10/13 09:26:10;;;;;;;11.20;9.85;;;460.90;2380.80;;;;;;4876999;29;20033;-57
2021/10/13 09:28:37;;;;;;;17.48;13.32;;;461.00;2380.80;;;;;;4877211;29;20037;-56
2021/10/13 09:31:18;;;;;;;14.02;10.48;;;460.80;2380.80;;;;;;4876732;29;20045;-58
2021/10/13 09:33:59;;;;;;;21.48;13.13;;;436.00;2355.20;;;;;;4877020;29;20096;-57
2021/10/13 09:36:36;;;;;;;18.75;12.57;;;436.10;2355.20;;;;;;4876626;29;20064;-56
2021/10/13 09:39:06;;;;;;;18.23;15.45;;;460.80;2380.80;;;;;;4876788;29;20045;-57
2021/10/13 09:41:53;;;;;;;21.15;13.52;;;436.00;2355.20;;;;;;4876716;29;20025;-56
2021/10/13 09:44:19;;;;;;;14.73;9.32;;;461.00;2380.80;;;;;;4877042;29;20025;-56
2021/10/13 09:46:45;;;;;;;10.95;8.93;;;461.00;2380.80;;;;;;4878208;29;20506;-60
2021/10/13 09:49:11;;;;;;;20.27;9.50;;;461.40;2380.80;;;;;;4878757;29;20543;-56
2021/10/13 09:51:37;;;;;;;15.00;7.88;;;461.50;2380.80;;;;;;4878617;29;20143;-56
2021/10/13 09:54:07;;;;;;;11.63;7.18;;;461.40;2380.80;;;;;;4878215;29;20029;-56
2021/10/13 09:56:36;;;;;;;12.93;7.35;;;461.10;2380.80;;;;;;4878282;29;20476;-56
2021/10/13 09:59:13;;;;;;;10.10;7.68;;;436.10;2355.20;;;;;;4877998;29;20033;-56
2021/10/13 10:01:43;;;;;;;23.63;14.68;;;435.90;2355.20;;;;;;4878051;29;20117;-56
2021/10/13 10:04:17;;;;;;;16.58;10.30;;;435.70;2355.20;;;;;;4878609;29;20353;-56
2021/10/13 10:06:48;;;;;;;17.20;12.30;;;435.60;2355.20;;;;;;4878014;29;20021;-77
2021/10/13 10:09:19;;;;;;;13.93;10.55;;;435.60;2355.20;;;;;;4877967;29;20025;-70
2021/10/13 10:11:47;;;;;;;19.35;13.95;;;436.10;2355.20;;;;;;4878139;29;20085;-56
2021/10/13 10:14:31;;;;;;;17.65;11.82;;;460.80;2380.80;;;;;;4877711;29;20041;-57
2021/10/13 10:16:57;;;;;;;85.25;57.90;;;461.10;2380.80;;;;;;4878065;29;20061;-77
2021/10/13 10:19:28;;;;;;;109.40;73.05;;;436.10;2355.20;;;;;;4877786;29;20123;-56
2021/10/13 10:21:59;;;;;;;60.60;38.63;;;460.80;2380.80;;;;;;4877713;29;20044;-55
2021/10/13 10:24:31;;;;;;;21.10;14.05;;;461.20;2380.80;;;;;;4877766;29;20108;-57
2021/10/13 10:27:21;;;;;;;23.15;15.00;;;461.10;2380.80;;;;;;4877755;29;20029;-57
2021/10/13 10:29:48;;;;;;;70.85;43.17;;;461.40;2380.80;;;;;;4877470;29;20033;-58
2021/10/13 10:32:16;;;;;;;127.25;80.35;;;461.60;2380.80;;;;;;4877214;29;20056;-58
2021/10/13 10:35:02;;;;;;;19.92;15.18;;;461.70;2380.80;;;;;;4877316;29;20057;-58
2021/10/13 10:38:04;;;;;;;279.55;166.73;;;461.70;2380.80;;;;;;4877597;29;20380;-58
2021/10/13 10:40:32;;;;;;;77.50;57.92;;;461.40;2380.80;;;;;;4877441;29;20065;-60
2021/10/13 10:43:23;;;;;;;9.27;8.35;;;461.20;2380.80;;;;;;4877502;29;20024;-63
2021/10/13 10:45:57;;;;;;;18.83;12.77;;;461.10;2380.80;;;;;;4877626;29;20384;-60
2021/10/13 10:48:42;;;;;;;22.35;17.20;;;461.10;2380.80;;;;;;4877421;29;20120;-68
2021/10/13 10:51:08;;;;;;;16.08;9.38;;;436.00;2355.20;;;;;;4877571;29;20036;-57
2021/10/13 10:53:45;;;;;;;35.97;27.88;;;435.70;2355.20;;;;;;4876626;29;20033;-57
2021/10/13 10:56:22;;;;;;;10.98;7.45;;;435.60;2355.20;;;;;;4877063;29;20385;-61
2021/10/13 10:59:07;;;;;;;9.70;7.30;;;410.40;2355.20;;;;;;4877434;29;20037;-57
2021/10/13 11:01:34;;;;;;;31.40;23.58;;;410.00;2355.20;;;;;;4876936;29;20036;-57
2021/10/13 11:04:06;;;;;;;16.27;12.95;;;410.00;2355.20;;;;;;4876890;29;20036;-58
2021/10/13 11:06:35;;;;;;;33.42;24.20;;;384.70;2329.60;;;;;;4876973;29;20027;-68
2021/10/13 11:09:04;;;;;;;35.22;27.13;;;384.20;2329.60;;;;;;4877025;29;20062;-57
2021/10/13 11:11:41;;;;;;;18.33;14.50;;;384.00;2329.60;;;;;;4877086;29;20482;-57
2021/10/13 11:14:09;;;;;;;19.48;16.60;;;359.30;2329.60;;;;;;4877001;29;20364;-62
2021/10/13 11:16:47;;;;;;;25.80;22.08;;;359.00;2329.60;;;;;;4876791;29;20383;-57
2021/10/13 11:19:16;;;;;;;18.65;12.18;;;359.10;2329.60;;;;;;4876666;29;20132;-60
2021/10/13 11:21:42;;;;;;;16.38;14.77;;;359.10;2329.60;;;;;;4876705;29;20021;-57
2021/10/13 11:24:08;;;;;;;15.60;14.00;;;359.00;2329.60;;;;;;4877004;29;20036;-57
2021/10/13 11:26:34;;;;;;;27.33;24.42;;;359.30;2329.60;;;;;;4876523;29;20077;-66
2021/10/13 11:29:00;;;;;;;11.43;8.75;;;359.30;2329.60;;;;;;4876289;29;20067;-58
2021/10/13 11:31:28;;;;;;;15.38;9.05;;;384.30;2329.60;;;;;;4876513;29;20072;-58
2021/10/13 11:34:07;;;;;;;58.15;41.88;;;384.60;2329.60;;;;;;4876349;29;20037;-57
2021/10/13 11:36:45;;;;;;;8.00;6.78;;;384.90;2329.60;;;;;;4876647;29;20087;-57
2021/10/13 11:39:23;;;;;;;16.20;11.43;;;409.90;2355.20;;;;;;4876436;29;20045;-57
2021/10/13 11:41:49;;;;;;;12.98;7.53;;;410.10;2355.20;;;;;;4876647;29;20025;-58
2021/10/13 11:44:20;;;;;;;11.75;8.07;;;409.90;2355.20;;;;;;4876437;29;20029;-64
2021/10/13 11:46:58;;;;;;;11.82;8.70;;;409.60;2355.20;;;;;;4859807;29;20037;-57
2021/10/13 11:49:24;;;;;;;9.88;7.25;;;384.20;2329.60;;;;;;4876225;29;20112;-58
2021/10/13 11:52:11;;;;;;;17.85;11.63;;;359.10;2329.60;;;;;;4876541;29;20065;-59
2021/10/13 11:54:37;;;;;;;18.42;14.23;;;359.00;2329.60;;;;;;4876444;29;20557;-60
2021/10/13 11:57:04;;;;;;;16.17;14.18;;;358.70;2329.60;;;;;;4876207;29;20033;-57
2021/10/13 11:59:30;;;;;;;16.27;11.38;;;358.60;2329.60;;;;;;4875952;29;20393;-60
2021/10/13 12:02:08;;;;;;;12.70;9.68;;;333.70;2329.60;;;;;;4876661;29;20041;-59
2021/10/13 12:04:34;;;;;;;15.52;11.95;;;333.70;2329.60;;;;;;4879112;29;20033;-59
2021/10/13 12:07:00;;;;;;;14.55;10.38;;;333.70;2329.60;;;;;;4880090;29;20036;-58
2021/10/13 12:09:25;;;;;;;16.23;14.55;;;358.50;2329.60;;;;;;4880113;29;20032;-60
2021/10/13 12:11:51;;;;;;;19.92;14.60;;;358.50;2329.60;;;;;;4879941;29;20036;-66